sensor_id;sensor_type;location;lat;lon;timestamp;P1;durP1;ratioP1;P2;durP2;ratioP2
64188;SDS011;50493;50.970;10.082;2023-12-04T00:01:59;23.40;;;10.40;;
64188;SDS011;50493;50.970;10.082;2023-12-04T00:04:24;27.05;;;11.48;;
64188;SDS011;50493;50.970;10.082;2023-12-04T00:06:50;26.97;;;11.10;;
64188;SDS011;50493;50.970;10.082;2023-12-04T00:09:15;27.27;;;11.48;;
64188;SDS011;50493;50.970;10.082;2023-12-04T00:11:40;25.30;;;9.95;;
64188;SDS011;50493;50.970;10.082;2023-12-04T00:14:07;26.13;;;10.65;;
64188;SDS011;50493;50.970;10.082;2023-12-04T00:16:33;25.90;;;10.80;;
64188;SDS011;50493;50.970;10.082;2023-12-04T00:18:58;25.05;;;11.23;;
64188;SDS011;50493;50.970;10.082;2023-12-04T00:21:24;21.53;;;9.63;;
64188;SDS011;50493;50.970;10.082;2023-12-04T00:23:49;19.30;;;8.40;;
64188;SDS011;50493;50.970;10.082;2023-12-04T00:26:15;26.10;;;10.23;;
64188;SDS011;50493;50.970;10.082;2023-12-04T00:28:41;25.40;;;10.77;;
64188;SDS011;50493;50.970;10.082;2023-12-04T00:31:08;24.00;;;9.98;;
64188;SDS011;50493;50.970;10.082;2023-12-04T00:33:33;21.63;;;9.10;;
64188;SDS011;50493;50.970;10.082;2023-12-04T00:35:59;24.80;;;11.48;;
64188;SDS011;50493;50.970;10.082;2023-12-04T00:38:24;25.08;;;11.43;;
64188;SDS011;50493;50.970;10.082;2023-12-04T00:40:49;24.48;;;11.15;;
64188;SDS011;50493;50.970;10.082;2023-12-04T00:43:14;23.05;;;10.20;;
64188;SDS011;50493;50.970;10.082;2023-12-04T00:45:40;19.10;;;8.82;;
64188;SDS011;50493;50.970;10.082;2023-12-04T00:48:06;26.17;;;10.83;;
64188;SDS011;50493;50.970;10.082;2023-12-04T00:50:32;25.73;;;10.70;;
64188;SDS011;50493;50.970;10.082;2023-12-04T00:52:57;23.58;;;10.43;;
64188;SDS011;50493;50.970;10.082;2023-12-04T00:55:23;24.30;;;10.65;;
64188;SDS011;50493;50.970;10.082;2023-12-04T00:57:48;26.00;;;10.32;;
64188;SDS011;50493;50.970;10.082;2023-12-04T01:00:14;25.15;;;11.27;;
64188;SDS011;50493;50.970;10.082;2023-12-04T01:02:40;21.67;;;9.65;;
64188;SDS011;50493;50.970;10.082;2023-12-04T01:05:07;24.25;;;10.95;;
64188;SDS011;50493;50.970;10.082;2023-12-04T01:07:32;24.48;;;9.82;;
64188;SDS011;50493;50.970;10.082;2023-12-04T01:09:57;20.57;;;8.97;;
64188;SDS011;50493;50.970;10.082;2023-12-04T01:12:23;23.88;;;10.27;;
64188;SDS011;50493;50.970;10.082;2023-12-04T01:14:48;24.20;;;11.07;;
64188;SDS011;50493;50.970;10.082;2023-12-04T01:17:14;20.02;;;8.32;;
64188;SDS011;50493;50.970;10.082;2023-12-04T01:19:39;21.90;;;8.73;;
64188;SDS011;50493;50.970;10.082;2023-12-04T01:22:06;19.23;;;8.73;;
64188;SDS011;50493;50.970;10.082;2023-12-04T01:24:31;20.88;;;8.48;;
64188;SDS011;50493;50.970;10.082;2023-12-04T01:26:57;20.73;;;8.80;;
64188;SDS011;50493;50.970;10.082;2023-12-04T01:29:22;25.53;;;10.67;;
64188;SDS011;50493;50.970;10.082;2023-12-04T01:31:47;25.50;;;10.77;;
64188;SDS011;50493;50.970;10.082;2023-12-04T01:34:13;21.05;;;8.63;;
64188;SDS011;50493;50.970;10.082;2023-12-04T01:36:39;22.85;;;9.00;;
64188;SDS011;50493;50.970;10.082;2023-12-04T01:39:06;20.98;;;8.98;;
64188;SDS011;50493;50.970;10.082;2023-12-04T01:41:32;22.88;;;10.07;;
64188;SDS011;50493;50.970;10.082;2023-12-04T01:43:57;20.55;;;8.90;;
64188;SDS011;50493;50.970;10.082;2023-12-04T01:46:22;20.92;;;9.05;;
64188;SDS011;50493;50.970;10.082;2023-12-04T01:48:48;18.90;;;8.50;;
64188;SDS011;50493;50.970;10.082;2023-12-04T01:51:14;19.70;;;8.35;;
64188;SDS011;50493;50.970;10.082;2023-12-04T01:53:42;19.65;;;8.85;;
64188;SDS011;50493;50.970;10.082;2023-12-04T01:56:09;22.17;;;10.25;;
64188;SDS011;50493;50.970;10.082;2023-12-04T01:58:35;23.60;;;10.20;;
64188;SDS011;50493;50.970;10.082;2023-12-04T02:01:02;26.05;;;10.82;;
64188;SDS011;50493;50.970;10.082;2023-12-04T02:03:29;22.95;;;8.90;;
64188;SDS011;50493;50.970;10.082;2023-12-04T02:05:55;23.83;;;10.50;;
64188;SDS011;50493;50.970;10.082;2023-12-04T02:08:24;26.63;;;11.73;;
64188;SDS011;50493;50.970;10.082;2023-12-04T02:10:50;26.45;;;10.88;;
64188;SDS011;50493;50.970;10.082;2023-12-04T02:13:16;19.10;;;8.67;;
64188;SDS011;50493;50.970;10.082;2023-12-04T02:15:42;23.35;;;10.43;;
64188;SDS011;50493;50.970;10.082;2023-12-04T02:18:08;19.13;;;8.68;;
64188;SDS011;50493;50.970;10.082;2023-12-04T02:20:34;28.08;;;14.20;;
64188;SDS011;50493;50.970;10.082;2023-12-04T02:23:00;24.98;;;10.77;;
64188;SDS011;50493;50.970;10.082;2023-12-04T02:25:27;24.58;;;11.10;;
64188;SDS011;50493;50.970;10.082;2023-12-04T02:27:52;23.45;;;10.90;;
64188;SDS011;50493;50.970;10.082;2023-12-04T02:30:20;21.92;;;9.32;;
64188;SDS011;50493;50.970;10.082;2023-12-04T02:32:48;24.67;;;11.18;;
64188;SDS011;50493;50.970;10.082;2023-12-04T02:35:16;25.77;;;10.98;;
64188;SDS011;50493;50.970;10.082;2023-12-04T02:37:45;19.70;;;8.73;;
64188;SDS011;50493;50.970;10.082;2023-12-04T02:40:12;25.60;;;10.40;;
64188;SDS011;50493;50.970;10.082;2023-12-04T02:42:39;21.55;;;9.57;;
64188;SDS011;50493;50.970;10.082;2023-12-04T02:45:05;22.75;;;10.73;;
64188;SDS011;50493;50.970;10.082;2023-12-04T02:47:31;24.98;;;10.68;;
64188;SDS011;50493;50.970;10.082;2023-12-04T02:49:57;22.90;;;9.18;;
64188;SDS011;50493;50.970;10.082;2023-12-04T02:52:22;23.90;;;9.93;;
64188;SDS011;50493;50.970;10.082;2023-12-04T02:54:48;25.25;;;11.13;;
64188;SDS011;50493;50.970;10.082;2023-12-04T02:57:13;23.90;;;10.15;;
64188;SDS011;50493;50.970;10.082;2023-12-04T02:59:40;21.27;;;9.77;;
64188;SDS011;50493;50.970;10.082;2023-12-04T03:02:05;22.08;;;9.35;;
64188;SDS011;50493;50.970;10.082;2023-12-04T03:04:30;24.10;;;10.10;;
64188;SDS011;50493;50.970;10.082;2023-12-04T03:06:57;25.08;;;10.30;;
64188;SDS011;50493;50.970;10.082;2023-12-04T03:09:22;23.23;;;10.23;;
64188;SDS011;50493;50.970;10.082;2023-12-04T03:11:47;20.50;;;8.57;;
64188;SDS011;50493;50.970;10.082;2023-12-04T03:14:13;22.98;;;9.40;;
64188;SDS011;50493;50.970;10.082;2023-12-04T03:16:39;20.55;;;9.63;;
64188;SDS011;50493;50.970;10.082;2023-12-04T03:19:05;23.50;;;10.45;;
64188;SDS011;50493;50.970;10.082;2023-12-04T03:21:30;19.80;;;8.70;;
64188;SDS011;50493;50.970;10.082;2023-12-04T03:23:56;19.52;;;7.93;;
64188;SDS011;50493;50.970;10.082;2023-12-04T03:26:21;21.30;;;9.38;;
64188;SDS011;50493;50.970;10.082;2023-12-04T03:28:46;23.15;;;9.88;;
64188;SDS011;50493;50.970;10.082;2023-12-04T03:31:12;21.57;;;8.90;;
64188;SDS011;50493;50.970;10.082;2023-12-04T03:33:38;19.48;;;8.60;;
64188;SDS011;50493;50.970;10.082;2023-12-04T03:36:04;20.35;;;9.68;;
64188;SDS011;50493;50.970;10.082;2023-12-04T03:38:30;18.95;;;8.25;;
64188;SDS011;50493;50.970;10.082;2023-12-04T03:40:55;21.65;;;9.63;;
64188;SDS011;50493;50.970;10.082;2023-12-04T03:43:21;21.45;;;9.98;;
64188;SDS011;50493;50.970;10.082;2023-12-04T03:45:46;24.13;;;11.43;;
64188;SDS011;50493;50.970;10.082;2023-12-04T03:48:12;17.90;;;7.80;;
64188;SDS011;50493;50.970;10.082;2023-12-04T03:50:38;17.60;;;7.50;;
64188;SDS011;50493;50.970;10.082;2023-12-04T03:53:04;20.60;;;8.57;;
64188;SDS011;50493;50.970;10.082;2023-12-04T03:55:29;19.60;;;9.07;;
64188;SDS011;50493;50.970;10.082;2023-12-04T03:57:55;19.15;;;8.82;;
64188;SDS011;50493;50.970;10.082;2023-12-04T04:00:21;21.27;;;9.02;;
64188;SDS011;50493;50.970;10.082;2023-12-04T04:02:48;22.90;;;9.40;;
64188;SDS011;50493;50.970;10.082;2023-12-04T04:05:13;21.05;;;9.23;;
64188;SDS011;50493;50.970;10.082;2023-12-04T04:07:40;19.77;;;8.82;;
64188;SDS011;50493;50.970;10.082;2023-12-04T04:10:06;18.20;;;8.05;;
64188;SDS011;50493;50.970;10.082;2023-12-04T04:12:32;20.85;;;9.88;;
64188;SDS011;50493;50.970;10.082;2023-12-04T04:14:58;18.48;;;8.00;;
64188;SDS011;50493;50.970;10.082;2023-12-04T04:17:23;17.40;;;7.93;;
64188;SDS011;50493;50.970;10.082;2023-12-04T04:19:51;20.95;;;9.38;;
64188;SDS011;50493;50.970;10.082;2023-12-04T04:22:17;22.15;;;9.80;;
64188;SDS011;50493;50.970;10.082;2023-12-04T04:24:43;18.70;;;8.48;;
64188;SDS011;50493;50.970;10.082;2023-12-04T04:27:09;17.10;;;7.50;;
64188;SDS011;50493;50.970;10.082;2023-12-04T04:29:34;17.83;;;7.33;;
64188;SDS011;50493;50.970;10.082;2023-12-04T04:31:59;18.40;;;8.40;;
64188;SDS011;50493;50.970;10.082;2023-12-04T04:34:25;18.67;;;8.18;;
64188;SDS011;50493;50.970;10.082;2023-12-04T04:36:50;20.23;;;8.57;;
64188;SDS011;50493;50.970;10.082;2023-12-04T04:39:15;19.50;;;10.03;;
64188;SDS011;50493;50.970;10.082;2023-12-04T04:41:42;18.73;;;9.13;;
64188;SDS011;50493;50.970;10.082;2023-12-04T04:44:09;22.30;;;9.85;;
64188;SDS011;50493;50.970;10.082;2023-12-04T04:46:34;20.13;;;8.70;;
64188;SDS011;50493;50.970;10.082;2023-12-04T04:48:59;21.43;;;11.03;;
64188;SDS011;50493;50.970;10.082;2023-12-04T04:51:25;18.70;;;7.55;;
64188;SDS011;50493;50.970;10.082;2023-12-04T04:53:50;20.58;;;9.18;;
64188;SDS011;50493;50.970;10.082;2023-12-04T04:56:15;16.85;;;7.75;;
64188;SDS011;50493;50.970;10.082;2023-12-04T04:58:43;20.02;;;9.80;;
64188;SDS011;50493;50.970;10.082;2023-12-04T05:01:09;16.30;;;8.25;;
64188;SDS011;50493;50.970;10.082;2023-12-04T05:03:34;20.45;;;9.38;;
64188;SDS011;50493;50.970;10.082;2023-12-04T05:05:59;20.30;;;8.73;;
64188;SDS011;50493;50.970;10.082;2023-12-04T05:08:25;19.90;;;8.77;;
64188;SDS011;50493;50.970;10.082;2023-12-04T05:10:50;20.58;;;8.68;;
64188;SDS011;50493;50.970;10.082;2023-12-04T05:13:16;21.63;;;8.95;;
64188;SDS011;50493;50.970;10.082;2023-12-04T05:15:43;23.40;;;10.43;;
64188;SDS011;50493;50.970;10.082;2023-12-04T05:18:09;20.33;;;9.50;;
64188;SDS011;50493;50.970;10.082;2023-12-04T05:20:34;19.55;;;8.27;;
64188;SDS011;50493;50.970;10.082;2023-12-04T05:23:00;21.60;;;9.63;;
64188;SDS011;50493;50.970;10.082;2023-12-04T05:25:25;21.35;;;10.73;;
64188;SDS011;50493;50.970;10.082;2023-12-04T05:27:50;21.47;;;9.07;;
64188;SDS011;50493;50.970;10.082;2023-12-04T05:30:16;20.52;;;8.82;;
64188;SDS011;50493;50.970;10.082;2023-12-04T05:32:42;21.25;;;9.82;;
64188;SDS011;50493;50.970;10.082;2023-12-04T05:35:08;20.30;;;9.25;;
64188;SDS011;50493;50.970;10.082;2023-12-04T05:37:33;18.73;;;9.07;;
64188;SDS011;50493;50.970;10.082;2023-12-04T05:39:58;19.15;;;8.43;;
64188;SDS011;50493;50.970;10.082;2023-12-04T05:42:24;22.35;;;10.15;;
64188;SDS011;50493;50.970;10.082;2023-12-04T05:44:49;19.98;;;9.32;;
64188;SDS011;50493;50.970;10.082;2023-12-04T05:47:14;21.27;;;9.43;;
64188;SDS011;50493;50.970;10.082;2023-12-04T05:49:41;19.17;;;7.78;;
64188;SDS011;50493;50.970;10.082;2023-12-04T05:52:06;17.95;;;8.75;;
64188;SDS011;50493;50.970;10.082;2023-12-04T05:54:32;20.20;;;9.40;;
64188;SDS011;50493;50.970;10.082;2023-12-04T05:56:57;20.42;;;9.57;;
64188;SDS011;50493;50.970;10.082;2023-12-04T05:59:23;20.58;;;9.10;;
64188;SDS011;50493;50.970;10.082;2023-12-04T06:01:48;20.10;;;9.10;;
64188;SDS011;50493;50.970;10.082;2023-12-04T06:04:14;20.17;;;9.23;;
64188;SDS011;50493;50.970;10.082;2023-12-04T06:06:40;21.45;;;10.45;;
64188;SDS011;50493;50.970;10.082;2023-12-04T06:09:06;19.60;;;9.38;;
64188;SDS011;50493;50.970;10.082;2023-12-04T06:11:31;23.02;;;10.50;;
64188;SDS011;50493;50.970;10.082;2023-12-04T06:13:57;21.27;;;10.38;;
64188;SDS011;50493;50.970;10.082;2023-12-04T06:16:23;20.55;;;8.90;;
64188;SDS011;50493;50.970;10.082;2023-12-04T06:18:48;17.77;;;7.40;;
64188;SDS011;50493;50.970;10.082;2023-12-04T06:21:14;21.20;;;9.35;;
64188;SDS011;50493;50.970;10.082;2023-12-04T06:23:41;23.45;;;9.75;;
64188;SDS011;50493;50.970;10.082;2023-12-04T06:26:07;20.95;;;8.48;;
64188;SDS011;50493;50.970;10.082;2023-12-04T06:28:34;18.80;;;7.95;;
64188;SDS011;50493;50.970;10.082;2023-12-04T06:30:59;20.60;;;8.65;;
64188;SDS011;50493;50.970;10.082;2023-12-04T06:33:25;19.42;;;8.73;;
64188;SDS011;50493;50.970;10.082;2023-12-04T06:35:51;20.98;;;11.40;;
64188;SDS011;50493;50.970;10.082;2023-12-04T06:38:17;20.00;;;8.65;;
64188;SDS011;50493;50.970;10.082;2023-12-04T06:40:45;21.95;;;10.18;;
64188;SDS011;50493;50.970;10.082;2023-12-04T06:43:11;21.98;;;10.00;;
64188;SDS011;50493;50.970;10.082;2023-12-04T06:45:37;21.20;;;9.32;;
64188;SDS011;50493;50.970;10.082;2023-12-04T06:48:03;21.17;;;8.98;;
64188;SDS011;50493;50.970;10.082;2023-12-04T06:50:29;22.52;;;9.63;;
64188;SDS011;50493;50.970;10.082;2023-12-04T06:52:55;21.35;;;8.63;;
64188;SDS011;50493;50.970;10.082;2023-12-04T06:55:20;21.48;;;10.65;;
64188;SDS011;50493;50.970;10.082;2023-12-04T06:57:47;20.73;;;8.68;;
64188;SDS011;50493;50.970;10.082;2023-12-04T07:00:12;21.67;;;9.23;;
64188;SDS011;50493;50.970;10.082;2023-12-04T07:02:39;20.38;;;8.57;;
64188;SDS011;50493;50.970;10.082;2023-12-04T07:05:05;20.08;;;9.02;;
64188;SDS011;50493;50.970;10.082;2023-12-04T07:07:31;19.95;;;7.20;;
64188;SDS011;50493;50.970;10.082;2023-12-04T07:09:57;14.20;;;6.05;;
64188;SDS011;50493;50.970;10.082;2023-12-04T07:12:22;17.83;;;7.38;;
64188;SDS011;50493;50.970;10.082;2023-12-04T07:14:49;19.23;;;8.32;;
64188;SDS011;50493;50.970;10.082;2023-12-04T07:17:15;18.25;;;8.18;;
64188;SDS011;50493;50.970;10.082;2023-12-04T07:19:40;20.95;;;8.43;;
64188;SDS011;50493;50.970;10.082;2023-12-04T07:22:06;20.13;;;8.55;;
64188;SDS011;50493;50.970;10.082;2023-12-04T07:24:31;19.80;;;8.30;;
64188;SDS011;50493;50.970;10.082;2023-12-04T07:26:57;20.60;;;9.50;;
64188;SDS011;50493;50.970;10.082;2023-12-04T07:29:22;20.37;;;10.17;;
64188;SDS011;50493;50.970;10.082;2023-12-04T07:31:49;19.33;;;7.93;;
64188;SDS011;50493;50.970;10.082;2023-12-04T07:34:14;16.52;;;7.05;;
64188;SDS011;50493;50.970;10.082;2023-12-04T07:36:39;12.25;;;5.00;;
64188;SDS011;50493;50.970;10.082;2023-12-04T07:39:05;21.83;;;8.90;;
64188;SDS011;50493;50.970;10.082;2023-12-04T07:41:31;18.55;;;8.77;;
64188;SDS011;50493;50.970;10.082;2023-12-04T07:43:57;21.33;;;11.32;;
64188;SDS011;50493;50.970;10.082;2023-12-04T07:46:22;16.80;;;7.45;;
64188;SDS011;50493;50.970;10.082;2023-12-04T07:48:49;21.92;;;10.15;;
64188;SDS011;50493;50.970;10.082;2023-12-04T07:51:14;20.27;;;8.90;;
64188;SDS011;50493;50.970;10.082;2023-12-04T07:53:39;20.30;;;9.15;;
64188;SDS011;50493;50.970;10.082;2023-12-04T07:56:05;22.52;;;9.52;;
64188;SDS011;50493;50.970;10.082;2023-12-04T07:58:31;20.25;;;9.32;;
64188;SDS011;50493;50.970;10.082;2023-12-04T08:00:57;20.10;;;8.75;;
64188;SDS011;50493;50.970;10.082;2023-12-04T08:03:22;19.85;;;8.43;;
64188;SDS011;50493;50.970;10.082;2023-12-04T08:05:50;18.63;;;7.88;;
64188;SDS011;50493;50.970;10.082;2023-12-04T08:08:15;19.13;;;9.27;;
64188;SDS011;50493;50.970;10.082;2023-12-04T08:10:40;21.15;;;8.32;;
64188;SDS011;50493;50.970;10.082;2023-12-04T08:13:06;18.98;;;8.88;;
64188;SDS011;50493;50.970;10.082;2023-12-04T08:15:31;21.15;;;9.82;;
64188;SDS011;50493;50.970;10.082;2023-12-04T08:17:56;20.43;;;9.60;;
64188;SDS011;50493;50.970;10.082;2023-12-04T08:20:23;20.40;;;9.65;;
64188;SDS011;50493;50.970;10.082;2023-12-04T08:22:49;18.88;;;10.07;;
64188;SDS011;50493;50.970;10.082;2023-12-04T08:25:15;21.40;;;9.93;;
64188;SDS011;50493;50.970;10.082;2023-12-04T08:27:40;19.45;;;9.13;;
64188;SDS011;50493;50.970;10.082;2023-12-04T08:30:06;16.98;;;7.28;;
64188;SDS011;50493;50.970;10.082;2023-12-04T08:32:32;19.73;;;9.80;;
64188;SDS011;50493;50.970;10.082;2023-12-04T08:34:57;20.25;;;9.82;;
64188;SDS011;50493;50.970;10.082;2023-12-04T08:37:22;20.55;;;9.75;;
64188;SDS011;50493;50.970;10.082;2023-12-04T08:39:49;21.48;;;9.85;;
64188;SDS011;50493;50.970;10.082;2023-12-04T08:42:15;14.95;;;6.95;;
64188;SDS011;50493;50.970;10.082;2023-12-04T08:44:40;18.85;;;10.45;;
64188;SDS011;50493;50.970;10.082;2023-12-04T08:47:05;17.08;;;7.20;;
64188;SDS011;50493;50.970;10.082;2023-12-04T08:49:31;20.27;;;9.82;;
64188;SDS011;50493;50.970;10.082;2023-12-04T08:51:57;19.40;;;8.20;;
64188;SDS011;50493;50.970;10.082;2023-12-04T08:54:23;19.75;;;8.60;;
64188;SDS011;50493;50.970;10.082;2023-12-04T08:56:50;18.80;;;8.80;;
64188;SDS011;50493;50.970;10.082;2023-12-04T08:59:16;20.35;;;8.85;;
64188;SDS011;50493;50.970;10.082;2023-12-04T09:01:41;16.75;;;7.57;;
64188;SDS011;50493;50.970;10.082;2023-12-04T09:04:07;17.75;;;7.60;;
64188;SDS011;50493;50.970;10.082;2023-12-04T09:06:33;17.83;;;8.13;;
64188;SDS011;50493;50.970;10.082;2023-12-04T09:08:58;18.95;;;9.75;;
64188;SDS011;50493;50.970;10.082;2023-12-04T09:11:23;19.55;;;8.88;;
64188;SDS011;50493;50.970;10.082;2023-12-04T09:13:50;19.42;;;8.73;;
64188;SDS011;50493;50.970;10.082;2023-12-04T09:16:15;17.23;;;7.63;;
64188;SDS011;50493;50.970;10.082;2023-12-04T09:18:41;17.40;;;7.57;;
64188;SDS011;50493;50.970;10.082;2023-12-04T09:21:06;18.25;;;8.23;;
64188;SDS011;50493;50.970;10.082;2023-12-04T09:23:33;16.15;;;7.70;;
64188;SDS011;50493;50.970;10.082;2023-12-04T09:25:58;14.65;;;6.93;;
64188;SDS011;50493;50.970;10.082;2023-12-04T09:28:24;16.98;;;7.30;;
64188;SDS011;50493;50.970;10.082;2023-12-04T09:30:50;18.35;;;8.15;;
64188;SDS011;50493;50.970;10.082;2023-12-04T09:33:15;16.52;;;7.45;;
64188;SDS011;50493;50.970;10.082;2023-12-04T09:35:41;17.80;;;8.23;;
64188;SDS011;50493;50.970;10.082;2023-12-04T09:38:07;19.80;;;8.07;;
64188;SDS011;50493;50.970;10.082;2023-12-04T09:40:32;16.13;;;7.75;;
64188;SDS011;50493;50.970;10.082;2023-12-04T09:42:58;15.65;;;7.25;;
64188;SDS011;50493;50.970;10.082;2023-12-04T09:45:23;13.95;;;6.78;;
64188;SDS011;50493;50.970;10.082;2023-12-04T09:47:51;16.80;;;7.82;;
64188;SDS011;50493;50.970;10.082;2023-12-04T09:50:16;16.00;;;6.53;;
64188;SDS011;50493;50.970;10.082;2023-12-04T09:52:47;17.98;;;7.60;;
64188;SDS011;50493;50.970;10.082;2023-12-04T09:55:14;16.75;;;7.07;;
64188;SDS011;50493;50.970;10.082;2023-12-04T09:57:40;16.60;;;7.55;;
64188;SDS011;50493;50.970;10.082;2023-12-04T10:00:07;14.43;;;6.85;;
64188;SDS011;50493;50.970;10.082;2023-12-04T10:02:35;16.40;;;6.78;;
64188;SDS011;50493;50.970;10.082;2023-12-04T10:05:02;15.70;;;7.25;;
64188;SDS011;50493;50.970;10.082;2023-12-04T10:07:30;17.20;;;8.70;;
64188;SDS011;50493;50.970;10.082;2023-12-04T10:09:56;17.15;;;8.00;;
64188;SDS011;50493;50.970;10.082;2023-12-04T10:12:21;16.83;;;7.55;;
64188;SDS011;50493;50.970;10.082;2023-12-04T10:14:50;14.43;;;7.18;;
64188;SDS011;50493;50.970;10.082;2023-12-04T10:17:28;15.55;;;6.88;;
64188;SDS011;50493;50.970;10.082;2023-12-04T10:20:04;17.27;;;7.13;;
64188;SDS011;50493;50.970;10.082;2023-12-04T10:22:36;15.55;;;7.15;;
64188;SDS011;50493;50.970;10.082;2023-12-04T10:25:04;17.95;;;7.60;;
64188;SDS011;50493;50.970;10.082;2023-12-04T10:27:39;15.63;;;8.60;;
64188;SDS011;50493;50.970;10.082;2023-12-04T10:30:05;15.88;;;7.00;;
64188;SDS011;50493;50.970;10.082;2023-12-04T10:32:32;15.77;;;7.93;;
64188;SDS011;50493;50.970;10.082;2023-12-04T10:35:01;14.52;;;6.53;;
64188;SDS011;50493;50.970;10.082;2023-12-04T10:37:30;15.57;;;7.18;;
64188;SDS011;50493;50.970;10.082;2023-12-04T10:39:55;14.38;;;6.95;;
64188;SDS011;50493;50.970;10.082;2023-12-04T10:42:23;16.00;;;7.10;;
64188;SDS011;50493;50.970;10.082;2023-12-04T10:47:16;14.05;;;6.15;;
64188;SDS011;50493;50.970;10.082;2023-12-04T10:49:42;14.23;;;6.72;;
64188;SDS011;50493;50.970;10.082;2023-12-04T10:52:08;14.52;;;5.65;;
64188;SDS011;50493;50.970;10.082;2023-12-04T10:54:35;16.90;;;7.85;;
64188;SDS011;50493;50.970;10.082;2023-12-04T10:57:02;15.25;;;7.60;;
64188;SDS011;50493;50.970;10.082;2023-12-04T10:59:31;14.13;;;6.60;;
64188;SDS011;50493;50.970;10.082;2023-12-04T11:01:59;13.07;;;6.22;;
64188;SDS011;50493;50.970;10.082;2023-12-04T11:04:26;15.38;;;6.95;;
64188;SDS011;50493;50.970;10.082;2023-12-04T11:06:53;16.38;;;7.82;;
64188;SDS011;50493;50.970;10.082;2023-12-04T11:09:20;16.40;;;7.55;;
64188;SDS011;50493;50.970;10.082;2023-12-04T11:11:48;13.98;;;6.15;;
64188;SDS011;50493;50.970;10.082;2023-12-04T11:14:19;14.85;;;7.13;;
64188;SDS011;50493;50.970;10.082;2023-12-04T11:16:48;14.40;;;6.82;;
64188;SDS011;50493;50.970;10.082;2023-12-04T11:19:20;17.75;;;7.78;;
64188;SDS011;50493;50.970;10.082;2023-12-04T11:21:52;15.10;;;6.20;;
64188;SDS011;50493;50.970;10.082;2023-12-04T11:24:18;11.93;;;5.35;;
64188;SDS011;50493;50.970;10.082;2023-12-04T11:26:47;13.85;;;6.13;;
64188;SDS011;50493;50.970;10.082;2023-12-04T11:29:14;16.13;;;7.50;;
64188;SDS011;50493;50.970;10.082;2023-12-04T11:31:41;13.45;;;6.57;;
64188;SDS011;50493;50.970;10.082;2023-12-04T11:34:07;14.65;;;6.90;;
64188;SDS011;50493;50.970;10.082;2023-12-04T11:36:34;14.43;;;6.88;;
64188;SDS011;50493;50.970;10.082;2023-12-04T11:38:59;14.07;;;6.53;;
64188;SDS011;50493;50.970;10.082;2023-12-04T11:41:25;14.65;;;6.97;;
64188;SDS011;50493;50.970;10.082;2023-12-04T11:43:52;15.25;;;7.05;;
64188;SDS011;50493;50.970;10.082;2023-12-04T11:46:20;14.00;;;7.05;;
64188;SDS011;50493;50.970;10.082;2023-12-04T11:48:48;13.10;;;6.07;;
64188;SDS011;50493;50.970;10.082;2023-12-04T11:51:15;13.57;;;6.63;;
64188;SDS011;50493;50.970;10.082;2023-12-04T11:54:00;14.63;;;6.57;;
64188;SDS011;50493;50.970;10.082;2023-12-04T11:56:25;15.27;;;6.78;;
64188;SDS011;50493;50.970;10.082;2023-12-04T11:58:52;13.30;;;6.28;;
64188;SDS011;50493;50.970;10.082;2023-12-04T12:01:18;13.52;;;6.47;;
64188;SDS011;50493;50.970;10.082;2023-12-04T12:03:45;16.42;;;6.65;;
64188;SDS011;50493;50.970;10.082;2023-12-04T12:06:15;12.40;;;5.78;;
64188;SDS011;50493;50.970;10.082;2023-12-04T12:08:40;15.40;;;6.90;;
64188;SDS011;50493;50.970;10.082;2023-12-04T12:11:06;11.65;;;5.82;;
64188;SDS011;50493;50.970;10.082;2023-12-04T12:13:31;14.95;;;6.55;;
64188;SDS011;50493;50.970;10.082;2023-12-04T12:15:58;13.60;;;6.63;;
64188;SDS011;50493;50.970;10.082;2023-12-04T12:18:23;13.90;;;6.15;;
64188;SDS011;50493;50.970;10.082;2023-12-04T12:20:49;16.00;;;7.38;;
64188;SDS011;50493;50.970;10.082;2023-12-04T12:23:14;13.43;;;6.38;;
64188;SDS011;50493;50.970;10.082;2023-12-04T12:25:40;13.23;;;6.13;;
64188;SDS011;50493;50.970;10.082;2023-12-04T12:28:05;13.60;;;5.63;;
64188;SDS011;50493;50.970;10.082;2023-12-04T12:30:31;14.93;;;6.85;;
64188;SDS011;50493;50.970;10.082;2023-12-04T12:32:58;12.32;;;6.25;;
64188;SDS011;50493;50.970;10.082;2023-12-04T12:35:24;14.48;;;6.70;;
64188;SDS011;50493;50.970;10.082;2023-12-04T12:37:50;12.48;;;5.63;;
64188;SDS011;50493;50.970;10.082;2023-12-04T12:40:18;13.63;;;6.43;;
64188;SDS011;50493;50.970;10.082;2023-12-04T12:42:45;14.20;;;6.32;;
64188;SDS011;50493;50.970;10.082;2023-12-04T12:45:10;13.05;;;6.10;;
64188;SDS011;50493;50.970;10.082;2023-12-04T12:47:36;12.00;;;5.80;;
64188;SDS011;50493;50.970;10.082;2023-12-04T12:50:03;12.88;;;6.30;;
64188;SDS011;50493;50.970;10.082;2023-12-04T12:52:33;15.70;;;7.55;;
64188;SDS011;50493;50.970;10.082;2023-12-04T12:54:58;15.55;;;7.40;;
64188;SDS011;50493;50.970;10.082;2023-12-04T12:57:24;16.13;;;8.35;;
64188;SDS011;50493;50.970;10.082;2023-12-04T12:59:50;14.52;;;7.25;;
64188;SDS011;50493;50.970;10.082;2023-12-04T13:02:16;16.65;;;7.25;;
64188;SDS011;50493;50.970;10.082;2023-12-04T13:04:42;16.33;;;7.20;;
64188;SDS011;50493;50.970;10.082;2023-12-04T13:07:09;13.82;;;6.85;;
64188;SDS011;50493;50.970;10.082;2023-12-04T13:09:35;12.98;;;6.15;;
64188;SDS011;50493;50.970;10.082;2023-12-04T13:12:01;17.38;;;7.15;;
64188;SDS011;50493;50.970;10.082;2023-12-04T13:14:27;15.48;;;7.32;;
64188;SDS011;50493;50.970;10.082;2023-12-04T13:16:52;15.25;;;7.63;;
64188;SDS011;50493;50.970;10.082;2023-12-04T13:19:19;11.70;;;6.18;;
64188;SDS011;50493;50.970;10.082;2023-12-04T13:21:45;16.30;;;8.18;;
64188;SDS011;50493;50.970;10.082;2023-12-04T13:24:11;13.02;;;5.90;;
64188;SDS011;50493;50.970;10.082;2023-12-04T13:26:37;19.67;;;8.38;;
64188;SDS011;50493;50.970;10.082;2023-12-04T13:29:03;15.57;;;6.97;;
64188;SDS011;50493;50.970;10.082;2023-12-04T13:31:29;10.95;;;5.78;;
64188;SDS011;50493;50.970;10.082;2023-12-04T13:33:54;20.60;;;9.40;;
64188;SDS011;50493;50.970;10.082;2023-12-04T13:36:19;14.13;;;6.30;;
64188;SDS011;50493;50.970;10.082;2023-12-04T13:38:45;13.40;;;6.30;;
64188;SDS011;50493;50.970;10.082;2023-12-04T13:41:12;14.40;;;7.43;;
64188;SDS011;50493;50.970;10.082;2023-12-04T13:43:56;12.32;;;6.25;;
64188;SDS011;50493;50.970;10.082;2023-12-04T13:46:24;12.48;;;6.30;;
64188;SDS011;50493;50.970;10.082;2023-12-04T13:48:51;12.82;;;6.35;;
64188;SDS011;50493;50.970;10.082;2023-12-04T13:51:17;9.00;;;4.47;;
64188;SDS011;50493;50.970;10.082;2023-12-04T13:53:42;12.63;;;6.30;;
64188;SDS011;50493;50.970;10.082;2023-12-04T13:56:15;11.35;;;6.25;;
64188;SDS011;50493;50.970;10.082;2023-12-04T13:59:02;11.30;;;5.88;;
64188;SDS011;50493;50.970;10.082;2023-12-04T14:01:29;13.13;;;5.88;;
64188;SDS011;50493;50.970;10.082;2023-12-04T14:03:55;12.48;;;6.13;;
64188;SDS011;50493;50.970;10.082;2023-12-04T14:06:26;13.20;;;6.15;;
64188;SDS011;50493;50.970;10.082;2023-12-04T14:08:52;14.80;;;5.80;;
64188;SDS011;50493;50.970;10.082;2023-12-04T14:11:19;11.32;;;5.50;;
64188;SDS011;50493;50.970;10.082;2023-12-04T14:13:44;12.25;;;5.88;;
64188;SDS011;50493;50.970;10.082;2023-12-04T14:16:10;12.20;;;5.95;;